sensor_id;sensor_type;location;lat;lon;timestamp;pressure;altitude;pressure_sealevel;temperature;humidity
41688;BME280;27371;42.686;23.362;2022-08-21T00:04:16;94321.31;;;18.77;93.45
41688;BME280;27371;42.686;23.362;2022-08-21T00:06:42;94319.66;;;18.82;93.38
41688;BME280;27371;42.686;23.362;2022-08-21T00:09:08;94309.38;;;18.75;92.08
41688;BME280;27371;42.686;23.362;2022-08-21T00:11:35;94311.19;;;18.72;92.69
41688;BME280;27371;42.686;23.362;2022-08-21T00:14:02;94308.41;;;18.64;93.23
41688;BME280;27371;42.686;23.362;2022-08-21T00:16:27;94301.41;;;18.63;93.75
41688;BME280;27371;42.686;23.362;2022-08-21T00:18:53;94310.44;;;18.72;93.89
41688;BME280;27371;42.686;23.362;2022-08-21T00:21:18;94311.72;;;18.70;94.04
41688;BME280;27371;42.686;23.362;2022-08-21T00:23:44;94310.44;;;18.72;94.03
41688;BME280;27371;42.686;23.362;2022-08-21T00:26:10;94301.41;;;18.71;93.79
41688;BME280;27371;42.686;23.362;2022-08-21T00:28:35;94301.22;;;18.69;94.25
41688;BME280;27371;42.686;23.362;2022-08-21T00:31:01;94304.53;;;18.67;94.21
41688;BME280;27371;42.686;23.362;2022-08-21T00:33:29;94295.53;;;18.67;94.65
41688;BME280;27371;42.686;23.362;2022-08-21T00:35:56;94297.56;;;18.66;94.74
41688;BME280;27371;42.686;23.362;2022-08-21T00:38:21;94287.81;;;18.65;94.82
41688;BME280;27371;42.686;23.362;2022-08-21T00:40:59;94295.34;;;18.65;94.98
41688;BME280;27371;42.686;23.362;2022-08-21T00:43:27;94301.97;;;18.62;95.06
41688;BME280;27371;42.686;23.362;2022-08-21T00:45:54;94295.91;;;18.56;95.01
41688;BME280;27371;42.686;23.362;2022-08-21T00:48:21;94310.03;;;18.60;95.28
41688;BME280;27371;42.686;23.362;2022-08-21T00:51:00;94301.78;;;18.60;95.46
41688;BME280;27371;42.686;23.362;2022-08-21T00:53:27;94302.13;;;18.56;95.65
41688;BME280;27371;42.686;23.362;2022-08-21T00:55:54;94317.59;;;18.59;95.71
41688;BME280;27371;42.686;23.362;2022-08-21T00:58:21;94313.38;;;18.58;96.03
41688;BME280;27371;42.686;23.362;2022-08-21T01:00:49;94297.00;;;18.60;96.29
41688;BME280;27371;42.686;23.362;2022-08-21T01:03:18;94303.81;;;18.67;95.83
41688;BME280;27371;42.686;23.362;2022-08-21T01:05:45;94297.75;;;18.68;95.61
41688;BME280;27371;42.686;23.362;2022-08-21T01:08:12;94291.13;;;18.72;95.44
41688;BME280;27371;42.686;23.362;2022-08-21T01:10:39;94285.59;;;18.72;95.59
41688;BME280;27371;42.686;23.362;2022-08-21T01:13:06;94289.66;;;18.70;95.58
41688;BME280;27371;42.686;23.362;2022-08-21T01:15:36;94292.59;;;18.73;95.96
41688;BME280;27371;42.686;23.362;2022-08-21T01:18:07;94281.56;;;18.73;95.98
41688;BME280;27371;42.686;23.362;2022-08-21T01:20:34;94284.69;;;18.69;95.84
41688;BME280;27371;42.686;23.362;2022-08-21T01:23:01;94272.91;;;18.68;96.03
41688;BME280;27371;42.686;23.362;2022-08-21T01:25:27;94275.53;;;18.74;95.75
41688;BME280;27371;42.686;23.362;2022-08-21T01:27:52;94276.78;;;18.73;95.41
41688;BME280;27371;42.686;23.362;2022-08-21T01:30:24;94278.81;;;18.73;95.56
41688;BME280;27371;42.686;23.362;2022-08-21T01:32:50;94274.59;;;18.79;95.34
41688;BME280;27371;42.686;23.362;2022-08-21T01:35:17;94275.34;;;18.80;95.76
41688;BME280;27371;42.686;23.362;2022-08-21T01:37:44;94277.00;;;18.83;95.29
41688;BME280;27371;42.686;23.362;2022-08-21T01:40:13;94275.53;;;18.82;95.23
41688;BME280;27371;42.686;23.362;2022-08-21T01:42:41;94285.09;;;18.81;95.51
41688;BME280;27371;42.686;23.362;2022-08-21T01:45:08;94294.47;;;18.85;95.10
41688;BME280;27371;42.686;23.362;2022-08-21T01:47:34;94293.41;;;18.88;94.89
41688;BME280;27371;42.686;23.362;2022-08-21T01:50:00;94296.69;;;18.95;94.59
41688;BME280;27371;42.686;23.362;2022-08-21T01:52:26;94282.69;;;18.85;93.94
41688;BME280;27371;42.686;23.362;2022-08-21T01:54:51;94292.25;;;18.76;94.33
41688;BME280;27371;42.686;23.362;2022-08-21T01:57:17;94290.56;;;18.73;94.60
41688;BME280;27371;42.686;23.362;2022-08-21T01:59:43;94295.72;;;18.69;94.77
41688;BME280;27371;42.686;23.362;2022-08-21T02:02:09;94290.38;;;18.63;94.80
41688;BME280;27371;42.686;23.362;2022-08-21T02:04:34;94290.75;;;18.67;95.23
41688;BME280;27371;42.686;23.362;2022-08-21T02:07:01;94293.13;;;18.63;95.21
41688;BME280;27371;42.686;23.362;2022-08-21T02:09:27;94299.38;;;18.56;95.68
41688;BME280;27371;42.686;23.362;2022-08-21T02:11:53;94298.63;;;18.48;96.17
41688;BME280;27371;42.686;23.362;2022-08-21T02:14:19;94302.84;;;18.49;96.46
41688;BME280;27371;42.686;23.362;2022-08-21T02:16:46;94305.59;;;18.49;96.55
41688;BME280;27371;42.686;23.362;2022-08-21T02:19:13;94293.13;;;18.48;96.67
41688;BME280;27371;42.686;23.362;2022-08-21T02:21:39;94301.59;;;18.50;97.02
41688;BME280;27371;42.686;23.362;2022-08-21T02:24:06;94306.00;;;18.53;96.72
41688;BME280;27371;42.686;23.362;2022-08-21T02:26:32;94299.56;;;18.51;96.81
41688;BME280;27371;42.686;23.362;2022-08-21T02:28:58;94299.16;;;18.46;96.58
41688;BME280;27371;42.686;23.362;2022-08-21T02:31:23;94303.75;;;18.44;96.64
41688;BME280;27371;42.686;23.362;2022-08-21T02:33:50;94314.63;;;18.50;96.84
41688;BME280;27371;42.686;23.362;2022-08-21T02:36:16;94309.84;;;18.50;96.43
41688;BME280;27371;42.686;23.362;2022-08-21T02:38:42;94316.84;;;18.51;96.26
41688;BME280;27371;42.686;23.362;2022-08-21T02:41:18;94311.34;;;18.59;96.65
41688;BME280;27371;42.686;23.362;2022-08-21T02:43:45;94291.47;;;18.60;96.49
41688;BME280;27371;42.686;23.362;2022-08-21T02:46:12;94303.25;;;18.61;96.49
41688;BME280;27371;42.686;23.362;2022-08-21T02:48:39;94303.78;;;18.59;96.00
41688;BME280;27371;42.686;23.362;2022-08-21T02:51:07;94308.59;;;18.59;95.74
41688;BME280;27371;42.686;23.362;2022-08-21T02:53:34;94294.06;;;18.58;96.02
41688;BME280;27371;42.686;23.362;2022-08-21T02:56:03;94311.53;;;18.68;95.64
41688;BME280;27371;42.686;23.362;2022-08-21T02:58:34;94307.13;;;18.65;94.96
41688;BME280;27371;42.686;23.362;2022-08-21T03:00:59;94291.66;;;18.47;94.48
41688;BME280;27371;42.686;23.362;2022-08-21T03:03:26;94313.34;;;18.51;95.14
41688;BME280;27371;42.686;23.362;2022-08-21T03:05:52;94306.72;;;18.46;95.39
41688;BME280;27371;42.686;23.362;2022-08-21T03:08:18;94312.03;;;18.36;95.92
41688;BME280;27371;42.686;23.362;2022-08-21T03:10:47;94310.03;;;18.44;96.28
41688;BME280;27371;42.686;23.362;2022-08-21T03:13:13;94318.28;;;18.52;96.37
41688;BME280;27371;42.686;23.362;2022-08-21T03:15:39;94309.31;;;18.59;96.30
41688;BME280;27371;42.686;23.362;2022-08-21T03:18:05;94312.81;;;18.60;95.87
41688;BME280;27371;42.686;23.362;2022-08-21T03:20:32;94310.41;;;18.56;95.69
41688;BME280;27371;42.686;23.362;2022-08-21T03:22:58;94308.19;;;18.47;96.15
41688;BME280;27371;42.686;23.362;2022-08-21T03:25:26;94300.25;;;18.36;96.62
41688;BME280;27371;42.686;23.362;2022-08-21T03:27:52;94309.78;;;18.27;96.91
41688;BME280;27371;42.686;23.362;2022-08-21T03:30:20;94319.50;;;18.20;97.44
41688;BME280;27371;42.686;23.362;2022-08-21T03:32:47;94325.91;;;18.15;97.84
41688;BME280;27371;42.686;23.362;2022-08-21T03:35:14;94308.25;;;18.11;98.19
41688;BME280;27371;42.686;23.362;2022-08-21T03:37:40;94306.38;;;18.06;98.42
41688;BME280;27371;42.686;23.362;2022-08-21T03:40:07;94315.56;;;18.00;99.08
41688;BME280;27371;42.686;23.362;2022-08-21T03:42:34;94302.69;;;17.95;99.63
41688;BME280;27371;42.686;23.362;2022-08-21T03:45:00;94305.59;;;17.90;100.00
41688;BME280;27371;42.686;23.362;2022-08-21T03:47:26;94308.38;;;17.90;100.00
41688;BME280;27371;42.686;23.362;2022-08-21T03:49:52;94307.59;;;17.82;100.00
41688;BME280;27371;42.686;23.362;2022-08-21T03:52:18;94300.34;;;17.71;100.00
41688;BME280;27371;42.686;23.362;2022-08-21T03:54:44;94302.53;;;17.65;100.00
41688;BME280;27371;42.686;23.362;2022-08-21T03:57:10;94317.22;;;17.67;100.00
41688;BME280;27371;42.686;23.362;2022-08-21T03:59:37;94318.09;;;17.62;100.00
41688;BME280;27371;42.686;23.362;2022-08-21T04:02:05;94321.38;;;17.61;100.00
41688;BME280;27371;42.686;23.362;2022-08-21T04:04:32;94306.84;;;17.52;100.00
41688;BME280;27371;42.686;23.362;2022-08-21T04:06:58;94312.13;;;17.43;100.00
41688;BME280;27371;42.686;23.362;2022-08-21T04:09:24;94322.97;;;17.48;100.00
41688;BME280;27371;42.686;23.362;2022-08-21T04:11:50;94312.13;;;17.43;100.00
41688;BME280;27371;42.686;23.362;2022-08-21T04:14:16;94323.56;;;17.54;100.00
41688;BME280;27371;42.686;23.362;2022-08-21T04:16:43;94325.22;;;17.57;100.00
41688;BME280;27371;42.686;23.362;2022-08-21T04:19:09;94312.53;;;17.54;100.00
41688;BME280;27371;42.686;23.362;2022-08-21T04:21:37;94315.50;;;17.56;100.00
41688;BME280;27371;42.686;23.362;2022-08-21T04:24:04;94312.75;;;17.56;100.00
41688;BME280;27371;42.686;23.362;2022-08-21T04:26:30;94316.03;;;17.55;100.00
41688;BME280;27371;42.686;23.362;2022-08-21T04:28:57;94309.78;;;17.54;100.00
41688;BME280;27371;42.686;23.362;2022-08-21T04:31:24;94316.59;;;17.53;100.00
41688;BME280;27371;42.686;23.362;2022-08-21T04:33:49;94315.09;;;17.52;100.00
41688;BME280;27371;42.686;23.362;2022-08-21T04:36:16;94291.56;;;17.44;100.00
41688;BME280;27371;42.686;23.362;2022-08-21T04:38:41;94323.84;;;17.72;100.00
41688;BME280;27371;42.686;23.362;2022-08-21T04:41:07;94313.41;;;17.78;100.00
41688;BME280;27371;42.686;23.362;2022-08-21T04:43:33;94282.00;;;17.73;100.00
41688;BME280;27371;42.686;23.362;2022-08-21T04:45:58;94307.31;;;18.00;100.00
41688;BME280;27371;42.686;23.362;2022-08-21T04:48:25;94308.97;;;18.03;100.00
41688;BME280;27371;42.686;23.362;2022-08-21T04:55:58;94317.19;;;18.40;99.81
41688;BME280;27371;42.686;23.362;2022-08-21T04:58:26;94323.63;;;18.58;99.57
41688;BME280;27371;42.686;23.362;2022-08-21T05:00:54;70990.38;;;-146.14;100.00
41688;BME280;27371;42.686;23.362;2022-08-21T05:03:21;70990.38;;;-146.14;100.00
41688;BME280;27371;42.686;23.362;2022-08-21T05:05:48;70990.38;;;-146.14;100.00
41688;BME280;27371;42.686;23.362;2022-08-21T05:08:16;70990.38;;;-146.14;100.00
41688;BME280;27371;42.686;23.362;2022-08-21T05:10:44;70990.38;;;-146.14;100.00
41688;BME280;27371;42.686;23.362;2022-08-21T05:13:11;70990.38;;;-146.14;100.00
41688;BME280;27371;42.686;23.362;2022-08-21T05:15:38;70990.38;;;-146.14;100.00
41688;BME280;27371;42.686;23.362;2022-08-21T05:18:05;70990.38;;;-146.14;100.00
41688;BME280;27371;42.686;23.362;2022-08-21T05:20:32;70990.38;;;-146.14;100.00
41688;BME280;27371;42.686;23.362;2022-08-21T05:22:59;70990.38;;;-146.14;100.00
41688;BME280;27371;42.686;23.362;2022-08-21T05:25:25;70990.38;;;-146.14;100.00
41688;BME280;27371;42.686;23.362;2022-08-21T05:27:51;70990.38;;;-146.14;100.00
41688;BME280;27371;42.686;23.362;2022-08-21T05:30:17;70990.38;;;-146.14;100.00
41688;BME280;27371;42.686;23.362;2022-08-21T05:32:42;70990.38;;;-146.14;100.00
41688;BME280;27371;42.686;23.362;2022-08-21T05:35:08;70990.38;;;-146.14;100.00
41688;BME280;27371;42.686;23.362;2022-08-21T05:37:34;70990.38;;;-146.14;100.00
41688;BME280;27371;42.686;23.362;2022-08-21T05:40:00;70990.38;;;-146.14;100.00
41688;BME280;27371;42.686;23.362;2022-08-21T05:42:27;70990.38;;;-146.14;100.00
41688;BME280;27371;42.686;23.362;2022-08-21T05:44:53;70990.38;;;-146.14;100.00
41688;BME280;27371;42.686;23.362;2022-08-21T05:47:18;70990.38;;;-146.14;100.00
41688;BME280;27371;42.686;23.362;2022-08-21T05:49:44;70990.38;;;-146.14;100.00
41688;BME280;27371;42.686;23.362;2022-08-21T05:52:09;70990.38;;;-146.14;100.00
41688;BME280;27371;42.686;23.362;2022-08-21T05:54:37;70990.38;;;-146.14;100.00
41688;BME280;27371;42.686;23.362;2022-08-21T05:57:02;70990.38;;;-146.14;100.00
41688;BME280;27371;42.686;23.362;2022-08-21T05:59:28;70990.38;;;-146.14;100.00
41688;BME280;27371;42.686;23.362;2022-08-21T06:01:53;70990.38;;;-146.14;100.00
41688;BME280;27371;42.686;23.362;2022-08-21T06:04:19;70990.38;;;-146.14;100.00
41688;BME280;27371;42.686;23.362;2022-08-21T06:06:45;70990.38;;;-146.14;100.00
41688;BME280;27371;42.686;23.362;2022-08-21T06:09:11;70990.38;;;-146.14;100.00
41688;BME280;27371;42.686;23.362;2022-08-21T06:11:36;70990.38;;;-146.14;100.00
41688;BME280;27371;42.686;23.362;2022-08-21T06:14:02;70990.38;;;-146.14;100.00
41688;BME280;27371;42.686;23.362;2022-08-21T06:16:27;70990.38;;;-146.14;100.00
41688;BME280;27371;42.686;23.362;2022-08-21T06:18:53;70990.38;;;-146.14;100.00
41688;BME280;27371;42.686;23.362;2022-08-21T06:21:19;70990.38;;;-146.14;100.00
41688;BME280;27371;42.686;23.362;2022-08-21T06:23:44;70990.38;;;-146.14;100.00
41688;BME280;27371;42.686;23.362;2022-08-21T06:26:12;70990.38;;;-146.14;100.00
41688;BME280;27371;42.686;23.362;2022-08-21T06:28:39;70990.38;;;-146.14;100.00
41688;BME280;27371;42.686;23.362;2022-08-21T06:31:17;70990.38;;;-146.14;100.00
41688;BME280;27371;42.686;23.362;2022-08-21T06:33:43;70990.38;;;-146.14;100.00
41688;BME280;27371;42.686;23.362;2022-08-21T06:36:08;70990.38;;;-146.14;100.00
41688;BME280;27371;42.686;23.362;2022-08-21T06:38:34;70990.38;;;-146.14;100.00
41688;BME280;27371;42.686;23.362;2022-08-21T06:41:00;70990.38;;;-146.14;100.00
41688;BME280;27371;42.686;23.362;2022-08-21T06:43:25;70990.38;;;-146.14;100.00
41688;BME280;27371;42.686;23.362;2022-08-21T06:45:51;70990.38;;;-146.14;100.00
41688;BME280;27371;42.686;23.362;2022-08-21T06:48:16;70990.38;;;-146.14;100.00
41688;BME280;27371;42.686;23.362;2022-08-21T06:50:42;70990.38;;;-146.14;100.00
41688;BME280;27371;42.686;23.362;2022-08-21T06:53:10;70990.38;;;-146.14;100.00
41688;BME280;27371;42.686;23.362;2022-08-21T06:55:36;70990.38;;;-146.14;100.00
41688;BME280;27371;42.686;23.362;2022-08-21T06:58:03;70990.38;;;-146.14;100.00
41688;BME280;27371;42.686;23.362;2022-08-21T07:00:29;70990.38;;;-146.14;100.00
41688;BME280;27371;42.686;23.362;2022-08-21T07:02:55;70990.38;;;-146.14;100.00
41688;BME280;27371;42.686;23.362;2022-08-21T07:05:21;70990.38;;;-146.14;100.00
41688;BME280;27371;42.686;23.362;2022-08-21T07:07:47;70990.38;;;-146.14;100.00
41688;BME280;27371;42.686;23.362;2022-08-21T07:10:14;70990.38;;;-146.14;100.00
41688;BME280;27371;42.686;23.362;2022-08-21T07:12:40;70990.38;;;-146.14;100.00
41688;BME280;27371;42.686;23.362;2022-08-21T07:15:06;70990.38;;;-146.14;100.00
41688;BME280;27371;42.686;23.362;2022-08-21T07:17:32;70990.38;;;-146.14;100.00
41688;BME280;27371;42.686;23.362;2022-08-21T07:19:58;70990.38;;;-146.14;100.00
41688;BME280;27371;42.686;23.362;2022-08-21T07:22:23;70990.38;;;-146.14;100.00
41688;BME280;27371;42.686;23.362;2022-08-21T07:24:49;70990.38;;;-146.14;100.00
41688;BME280;27371;42.686;23.362;2022-08-21T07:27:15;70990.38;;;-146.14;100.00
41688;BME280;27371;42.686;23.362;2022-08-21T07:29:40;70990.38;;;-146.14;100.00
41688;BME280;27371;42.686;23.362;2022-08-21T07:32:06;70990.38;;;-146.14;100.00
41688;BME280;27371;42.686;23.362;2022-08-21T07:34:32;70990.38;;;-146.14;100.00
41688;BME280;27371;42.686;23.362;2022-08-21T07:36:57;70990.38;;;-146.14;100.00
41688;BME280;27371;42.686;23.362;2022-08-21T07:39:23;70990.38;;;-146.14;100.00
41688;BME280;27371;42.686;23.362;2022-08-21T07:41:49;70990.38;;;-146.14;100.00
41688;BME280;27371;42.686;23.362;2022-08-21T07:44:15;70990.38;;;-146.14;100.00
41688;BME280;27371;42.686;23.362;2022-08-21T07:46:40;70990.38;;;-146.14;100.00
41688;BME280;27371;42.686;23.362;2022-08-21T07:49:05;70990.38;;;-146.14;100.00
41688;BME280;27371;42.686;23.362;2022-08-21T07:51:31;70990.38;;;-146.14;100.00
41688;BME280;27371;42.686;23.362;2022-08-21T07:53:59;70990.38;;;-146.14;100.00
41688;BME280;27371;42.686;23.362;2022-08-21T07:56:25;70990.38;;;-146.14;100.00
41688;BME280;27371;42.686;23.362;2022-08-21T07:58:51;70990.38;;;-146.14;100.00
41688;BME280;27371;42.686;23.362;2022-08-21T08:01:16;70990.38;;;-146.14;100.00
41688;BME280;27371;42.686;23.362;2022-08-21T08:03:42;70990.38;;;-146.14;100.00
41688;BME280;27371;42.686;23.362;2022-08-21T08:06:09;70990.38;;;-146.14;100.00
41688;BME280;27371;42.686;23.362;2022-08-21T08:08:38;70990.38;;;-146.14;100.00
41688;BME280;27371;42.686;23.362;2022-08-21T08:11:04;70990.38;;;-146.14;100.00
41688;BME280;27371;42.686;23.362;2022-08-21T08:13:30;70990.38;;;-146.14;100.00
41688;BME280;27371;42.686;23.362;2022-08-21T08:15:55;70990.38;;;-146.14;100.00
41688;BME280;27371;42.686;23.362;2022-08-21T08:18:21;70990.38;;;-146.14;100.00
41688;BME280;27371;42.686;23.362;2022-08-21T08:20:46;70990.38;;;-146.14;100.00
41688;BME280;27371;42.686;23.362;2022-08-21T08:23:13;70990.38;;;-146.14;100.00
41688;BME280;27371;42.686;23.362;2022-08-21T08:25:39;70990.38;;;-146.14;100.00
41688;BME280;27371;42.686;23.362;2022-08-21T08:28:05;70990.38;;;-146.14;100.00
41688;BME280;27371;42.686;23.362;2022-08-21T08:30:31;70990.38;;;-146.14;100.00
41688;BME280;27371;42.686;23.362;2022-08-21T08:32:56;70990.38;;;-146.14;100.00
41688;BME280;27371;42.686;23.362;2022-08-21T08:35:23;70990.38;;;-146.14;100.00
41688;BME280;27371;42.686;23.362;2022-08-21T08:37:51;70990.38;;;-146.14;100.00
41688;BME280;27371;42.686;23.362;2022-08-21T08:40:30;70990.38;;;-146.14;100.00
41688;BME280;27371;42.686;23.362;2022-08-21T08:42:58;70990.38;;;-146.14;100.00
41688;BME280;27371;42.686;23.362;2022-08-21T08:45:24;70990.38;;;-146.14;100.00
41688;BME280;27371;42.686;23.362;2022-08-21T08:48:08;70990.38;;;-146.14;100.00
41688;BME280;27371;42.686;23.362;2022-08-21T08:50:45;70990.38;;;-146.14;100.00
41688;BME280;27371;42.686;23.362;2022-08-21T08:53:17;70990.38;;;-146.14;100.00
41688;BME280;27371;42.686;23.362;2022-08-21T08:55:44;70990.38;;;-146.14;100.00
41688;BME280;27371;42.686;23.362;2022-08-21T08:58:22;70990.38;;;-146.14;100.00
41688;BME280;27371;42.686;23.362;2022-08-21T09:00:52;70990.38;;;-146.14;100.00
41688;BME280;27371;42.686;23.362;2022-08-21T09:03:21;70990.38;;;-146.14;100.00
41688;BME280;27371;42.686;23.362;2022-08-21T09:11:41;70990.38;;;-146.14;100.00
41688;BME280;27371;42.686;23.362;2022-08-21T09:17:04;70990.38;;;-146.14;100.00
41688;BME280;27371;42.686;23.362;2022-08-21T09:22:39;70990.38;;;-146.14;100.00
41688;BME280;27371;42.686;23.362;2022-08-21T09:25:26;70990.38;;;-146.14;100.00
41688;BME280;27371;42.686;23.362;2022-08-21T09:27:52;70990.38;;;-146.14;100.00
41688;BME280;27371;42.686;23.362;2022-08-21T09:30:23;70990.38;;;-146.14;100.00
41688;BME280;27371;42.686;23.362;2022-08-21T09:32:50;70990.38;;;-146.14;100.00
41688;BME280;27371;42.686;23.362;2022-08-21T09:35:21;70990.38;;;-146.14;100.00
41688;BME280;27371;42.686;23.362;2022-08-21T09:38:04;70990.38;;;-146.14;100.00
41688;BME280;27371;42.686;23.362;2022-08-21T09:40:45;70990.38;;;-146.14;100.00
41688;BME280;27371;42.686;23.362;2022-08-21T09:45:38;70990.38;;;-146.14;100.00
41688;BME280;27371;42.686;23.362;2022-08-21T09:48:22;70990.38;;;-146.14;100.00
41688;BME280;27371;42.686;23.362;2022-08-21T09:50:49;70990.38;;;-146.14;100.00
41688;BME280;27371;42.686;23.362;2022-08-21T09:53:24;70990.38;;;-146.14;100.00
41688;BME280;27371;42.686;23.362;2022-08-21T09:55:54;70990.38;;;-146.14;100.00
41688;BME280;27371;42.686;23.362;2022-08-21T09:58:40;70990.38;;;-146.14;100.00
41688;BME280;27371;42.686;23.362;2022-08-21T10:01:13;70990.38;;;-146.14;100.00
41688;BME280;27371;42.686;23.362;2022-08-21T10:03:42;70990.38;;;-146.14;100.00
41688;BME280;27371;42.686;23.362;2022-08-21T10:06:09;70990.38;;;-146.14;100.00
41688;BME280;27371;42.686;23.362;2022-08-21T10:08:40;70990.38;;;-146.14;100.00
41688;BME280;27371;42.686;23.362;2022-08-21T10:11:09;70990.38;;;-146.14;100.00
41688;BME280;27371;42.686;23.362;2022-08-21T10:21:37;70990.38;;;-146.14;100.00
41688;BME280;27371;42.686;23.362;2022-08-21T10:24:07;70990.38;;;-146.14;100.00
41688;BME280;27371;42.686;23.362;2022-08-21T10:32:01;70990.38;;;-146.14;100.00
41688;BME280;27371;42.686;23.362;2022-08-21T10:40:34;70990.38;;;-146.14;100.00
41688;BME280;27371;42.686;23.362;2022-08-21T10:45:47;70990.38;;;-146.14;100.00
41688;BME280;27371;42.686;23.362;2022-08-21T10:50:59;70990.38;;;-146.14;100.00
41688;BME280;27371;42.686;23.362;2022-08-21T10:56:26;70990.38;;;-146.14;100.00
41688;BME280;27371;42.686;23.362;2022-08-21T11:01:49;70990.38;;;-146.14;100.00
41688;BME280;27371;42.686;23.362;2022-08-21T11:04:30;70990.38;;;-146.14;100.00
41688;BME280;27371;42.686;23.362;2022-08-21T11:07:12;70990.38;;;-146.14;100.00
41688;BME280;27371;42.686;23.362;2022-08-21T11:09:43;70990.38;;;-146.14;100.00
41688;BME280;27371;42.686;23.362;2022-08-21T11:12:34;70990.38;;;-146.14;100.00
41688;BME280;27371;42.686;23.362;2022-08-21T11:18:17;70990.38;;;-146.14;100.00
41688;BME280;27371;42.686;23.362;2022-08-21T11:29:48;70990.38;;;-146.14;100.00
41688;BME280;27371;42.686;23.362;2022-08-21T11:43:25;70990.38;;;-146.14;100.00
41688;BME280;27371;42.686;23.362;2022-08-21T11:49:21;70990.38;;;-146.14;100.00
41688;BME280;27371;42.686;23.362;2022-08-21T11:52:18;70990.38;;;-146.14;100.00
41688;BME280;27371;42.686;23.362;2022-08-21T11:55:12;70990.38;;;-146.14;100.00
41688;BME280;27371;42.686;23.362;2022-08-21T11:58:07;70990.38;;;-146.14;100.00
41688;BME280;27371;42.686;23.362;2022-08-21T12:00:42;70990.38;;;-146.14;100.00
41688;BME280;27371;42.686;23.362;2022-08-21T12:03:39;70990.38;;;-146.14;100.00
41688;BME280;27371;42.686;23.362;2022-08-21T12:06:09;70990.38;;;-146.14;100.00
41688;BME280;27371;42.686;23.362;2022-08-21T12:08:40;70990.38;;;-146.14;100.00
41688;BME280;27371;42.686;23.362;2022-08-21T12:11:23;70990.38;;;-146.14;100.00
41688;BME280;27371;42.686;23.362;2022-08-21T12:14:11;70990.38;;;-146.14;100.00
41688;BME280;27371;42.686;23.362;2022-08-21T12:16:42;70990.38;;;-146.14;100.00
41688;BME280;27371;42.686;23.362;2022-08-21T12:21:51;70990.38;;;-146.14;100.00
41688;BME280;27371;42.686;23.362;2022-08-21T12:24:31;70990.38;;;-146.14;100.00
41688;BME280;27371;42.686;23.362;2022-08-21T12:30:03;70990.38;;;-146.14;100.00
41688;BME280;27371;42.686;23.362;2022-08-21T12:32:45;70990.38;;;-146.14;100.00
41688;BME280;27371;42.686;23.362;2022-08-21T12:37:44;70990.38;;;-146.14;100.00
41688;BME280;27371;42.686;23.362;2022-08-21T12:40:25;70990.38;;;-146.14;100.00
41688;BME280;27371;42.686;23.362;2022-08-21T12:42:55;70990.38;;;-146.14;100.00
41688;BME280;27371;42.686;23.362;2022-08-21T12:45:28;70990.38;;;-146.14;100.00
41688;BME280;27371;42.686;23.362;2022-08-21T12:48:25;70990.38;;;-146.14;100.00
41688;BME280;27371;42.686;23.362;2022-08-21T12:51:13;70990.38;;;-146.14;100.00
41688;BME280;27371;42.686;23.362;2022-08-21T12:53:55;70990.38;;;-146.14;100.00
41688;BME280;27371;42.686;23.362;2022-08-21T12:56:23;70990.38;;;-146.14;100.00
41688;BME280;27371;42.686;23.362;2022-08-21T12:58:57;70990.38;;;-146.14;100.00
41688;BME280;27371;42.686;23.362;2022-08-21T13:01:30;70990.38;;;-146.14;100.00
41688;BME280;27371;42.686;23.362;2022-08-21T13:03:59;70990.38;;;-146.14;100.00
41688;BME280;27371;42.686;23.362;2022-08-21T13:06:29;70990.38;;;-146.14;100.00
41688;BME280;27371;42.686;23.362;2022-08-21T13:08:58;70990.38;;;-146.14;100.00
41688;BME280;27371;42.686;23.362;2022-08-21T13:11:29;70990.38;;;-146.14;100.00
41688;BME280;27371;42.686;23.362;2022-08-21T13:13:54;70990.38;;;-146.14;100.00
41688;BME280;27371;42.686;23.362;2022-08-21T13:16:24;70990.38;;;-146.14;100.00
41688;BME280;27371;42.686;23.362;2022-08-21T13:18:58;70990.38;;;-146.14;100.00
41688;BME280;27371;42.686;23.362;2022-08-21T13:21:39;70990.38;;;-146.14;100.00
41688;BME280;27371;42.686;23.362;2022-08-21T13:24:28;70990.38;;;-146.14;100.00
41688;BME280;27371;42.686;23.362;2022-08-21T13:26:55;70990.38;;;-146.14;100.00
41688;BME280;27371;42.686;23.362;2022-08-21T13:29:27;70990.38;;;-146.14;100.00
41688;BME280;27371;42.686;23.362;2022-08-21T13:31:58;70990.38;;;-146.14;100.00
41688;BME280;27371;42.686;23.362;2022-08-21T13:34:30;70990.38;;;-146.14;100.00
41688;BME280;27371;42.686;23.362;2022-08-21T13:37:02;70990.38;;;-146.14;100.00
41688;BME280;27371;42.686;23.362;2022-08-21T13:39:29;70990.38;;;-146.14;100.00
41688;BME280;27371;42.686;23.362;2022-08-21T13:41:56;70990.38;;;-146.14;100.00
41688;BME280;27371;42.686;23.362;2022-08-21T13:44:31;70990.38;;;-146.14;100.00
41688;BME280;27371;42.686;23.362;2022-08-21T13:46:59;70990.38;;;-146.14;100.00
41688;BME280;27371;42.686;23.362;2022-08-21T13:49:35;70990.38;;;-146.14;100.00
41688;BME280;27371;42.686;23.362;2022-08-21T13:52:02;70990.38;;;-146.14;100.00
41688;BME280;27371;42.686;23.362;2022-08-21T13:54:40;70990.38;;;-146.14;100.00
41688;BME280;27371;42.686;23.362;2022-08-21T13:57:23;70990.38;;;-146.14;100.00
41688;BME280;27371;42.686;23.362;2022-08-21T13:59:49;70990.38;;;-146.14;100.00
41688;BME280;27371;42.686;23.362;2022-08-21T14:02:22;70990.38;;;-146.14;100.00
41688;BME280;27371;42.686;23.362;2022-08-21T14:04:57;70990.38;;;-146.14;100.00
41688;BME280;27371;42.686;23.362;2022-08-21T14:07:37;70990.38;;;-146.14;100.00